createdAt,value
2022-09-09T00:00:37.981Z,17.50
2022-09-09T00:03:20.958Z,17.50
2022-09-09T00:05:57.141Z,17.40
2022-09-09T00:08:49.054Z,17.30
2022-09-09T00:11:29.356Z,17.30
2022-09-09T00:14:00.961Z,17.20
2022-09-09T00:16:33.092Z,17.30
2022-09-09T00:19:25.501Z,17.30
2022-09-09T00:22:20.066Z,17.40
2022-09-09T00:24:56.431Z,17.40
2022-09-09T00:27:52.456Z,17.30
2022-09-09T00:30:21.487Z,17.20
2022-09-09T00:32:59.243Z,17.20
2022-09-09T00:35:30.760Z,17.00
2022-09-09T00:38:06.385Z,17.00
2022-09-09T00:40:38.337Z,17.10
2022-09-09T00:43:20.201Z,17.10
2022-09-09T00:45:55.990Z,17.00
2022-09-09T00:48:26.949Z,17.00
2022-09-09T00:50:56.800Z,16.90
2022-09-09T00:53:31.027Z,17.00
2022-09-09T00:56:16.156Z,16.90
2022-09-09T00:59:17.559Z,17.00
2022-09-09T01:01:45.121Z,17.00
2022-09-09T01:04:22.646Z,17.00
2022-09-09T01:06:57.945Z,17.00
2022-09-09T01:09:52.891Z,16.90
2022-09-09T01:12:43.103Z,16.90
2022-09-09T01:15:14.627Z,16.90
2022-09-09T01:18:02.584Z,16.80
2022-09-09T01:20:56.604Z,16.70
2022-09-09T01:23:57.201Z,16.70
2022-09-09T01:26:38.301Z,16.70
2022-09-09T01:29:13.636Z,16.70
2022-09-09T01:31:56.425Z,16.60
2022-09-09T01:34:25.877Z,16.60
2022-09-09T01:37:00.490Z,16.60
2022-09-09T01:39:27.923Z,16.50
2022-09-09T01:41:57.131Z,16.40
2022-09-09T01:44:25.744Z,16.50
2022-09-09T01:46:52.823Z,16.50
2022-09-09T01:49:20.231Z,16.50
2022-09-09T01:51:56.220Z,16.50
2022-09-09T01:54:27.529Z,16.50
2022-09-09T01:57:21.910Z,16.60
2022-09-09T02:00:00.839Z,16.60
2022-09-09T02:02:45.146Z,16.50
2022-09-09T02:05:30.573Z,16.50
2022-09-09T02:08:37.643Z,16.40
2022-09-09T02:11:14.124Z,16.40
2022-09-09T02:13:43.909Z,16.30
2022-09-09T02:16:27.416Z,16.30
2022-09-09T02:19:18.233Z,16.30
2022-09-09T02:21:47.449Z,16.30
2022-09-09T02:24:17.758Z,16.20
2022-09-09T02:26:49.136Z,16.30
2022-09-09T02:29:22.246Z,16.30
2022-09-09T02:31:52.271Z,16.30
2022-09-09T02:34:23.170Z,16.30
2022-09-09T02:36:51.908Z,16.30
2022-09-09T02:39:19.033Z,16.20
2022-09-09T02:41:46.143Z,16.20
2022-09-09T02:44:19.042Z,16.20
2022-09-09T02:47:21.354Z,16.10
2022-09-09T02:50:14.070Z,16.10
2022-09-09T02:53:01.116Z,16.10
2022-09-09T02:55:47.193Z,16.10
2022-09-09T02:58:20.047Z,16.00
2022-09-09T03:00:50.209Z,16.00
2022-09-09T03:03:18.920Z,16.00
2022-09-09T03:05:46.714Z,16.00
2022-09-09T03:08:18.125Z,16.10
2022-09-09T03:10:45.409Z,16.10
2022-09-09T03:13:14.091Z,16.10
2022-09-09T03:15:41.080Z,16.00
2022-09-09T03:18:08.513Z,15.90
2022-09-09T03:20:35.448Z,15.90
2022-09-09T03:23:03.586Z,15.80
2022-09-09T03:25:30.976Z,15.80
2022-09-09T03:27:58.189Z,15.80
2022-09-09T03:30:26.978Z,15.80
2022-09-09T03:32:54.154Z,15.80
2022-09-09T03:35:21.523Z,15.90
2022-09-09T03:37:48.666Z,15.90
2022-09-09T03:40:19.237Z,15.90
2022-09-09T03:42:46.387Z,15.90
2022-09-09T03:45:13.407Z,15.90
2022-09-09T03:47:43.151Z,15.90
2022-09-09T03:50:11.547Z,15.90
2022-09-09T03:52:40.413Z,15.90
2022-09-09T03:55:08.718Z,15.80
2022-09-09T03:57:36.969Z,15.80
2022-09-09T04:00:08.713Z,15.80
2022-09-09T04:02:35.923Z,15.80
2022-09-09T04:05:03.140Z,15.80
2022-09-09T04:07:30.186Z,15.80
2022-09-09T04:09:58.009Z,15.80
2022-09-09T04:12:25.101Z,15.90
2022-09-09T04:14:52.147Z,15.90
2022-09-09T04:17:19.375Z,15.90
2022-09-09T04:19:46.611Z,16.00
2022-09-09T04:22:13.649Z,15.90
2022-09-09T04:24:40.651Z,15.90
2022-09-09T04:27:07.742Z,15.80
2022-09-09T04:29:34.781Z,15.80
2022-09-09T04:32:02.028Z,15.90
2022-09-09T04:34:29.701Z,15.90
2022-09-09T04:36:57.415Z,15.90
2022-09-09T04:39:24.442Z,15.90
2022-09-09T04:41:51.580Z,15.90
2022-09-09T04:44:21.526Z,15.90
2022-09-09T04:46:48.388Z,15.90
2022-09-09T04:49:15.657Z,15.80
2022-09-09T04:51:42.747Z,15.80
2022-09-09T04:54:09.786Z,15.90
2022-09-09T04:56:37.516Z,15.90
2022-09-09T04:59:04.538Z,16.00
2022-09-09T05:01:31.542Z,16.00
2022-09-09T05:03:58.914Z,16.00
2022-09-09T05:06:26.140Z,16.00
2022-09-09T05:08:53.878Z,16.00
2022-09-09T05:11:26.937Z,16.00
2022-09-09T05:13:55.082Z,16.00
2022-09-09T05:16:23.971Z,16.10
2022-09-09T05:18:52.372Z,16.10
2022-09-09T05:21:21.365Z,16.00
2022-09-09T05:23:48.827Z,16.00
2022-09-09T05:26:20.142Z,16.00
2022-09-09T05:28:48.086Z,16.10
2022-09-09T05:31:17.222Z,16.10
2022-09-09T05:33:47.147Z,16.10
2022-09-09T05:36:22.746Z,16.20
2022-09-09T05:38:50.945Z,16.10
2022-09-09T05:41:18.607Z,16.10
2022-09-09T05:43:46.685Z,16.00
2022-09-09T05:46:16.361Z,15.90
2022-09-09T05:48:47.445Z,15.80
2022-09-09T05:51:17.195Z,15.80
2022-09-09T05:53:44.911Z,15.80
2022-09-09T05:56:29.041Z,15.90
2022-09-09T05:58:56.940Z,16.00
2022-09-09T06:01:25.403Z,16.10
2022-09-09T06:03:53.291Z,16.10
2022-09-09T06:06:23.397Z,16.20
2022-09-09T06:08:54.017Z,16.20
2022-09-09T06:11:27.542Z,16.10
2022-09-09T06:13:55.668Z,16.10
2022-09-09T06:16:25.370Z,16.10
2022-09-09T06:18:54.977Z,16.10
2022-09-09T06:21:31.387Z,16.10
2022-09-09T06:24:01.005Z,16.10
2022-09-09T06:26:33.922Z,16.10
2022-09-09T06:29:01.890Z,16.10
2022-09-09T06:31:31.735Z,16.10
2022-09-09T06:34:00.279Z,16.10
2022-09-09T06:36:29.611Z,16.10
2022-09-09T06:38:56.944Z,16.10
2022-09-09T06:41:27.259Z,16.10
2022-09-09T06:43:54.622Z,16.10
2022-09-09T06:46:29.170Z,16.20
2022-09-09T06:49:00.823Z,16.20
2022-09-09T06:51:33.546Z,16.20
2022-09-09T06:54:03.365Z,16.20
2022-09-09T06:56:33.789Z,16.20
2022-09-09T06:59:05.029Z,16.40
2022-09-09T07:01:34.762Z,16.40
2022-09-09T07:04:03.048Z,16.40
2022-09-09T07:06:38.651Z,16.50
2022-09-09T07:09:11.012Z,16.60
2022-09-09T07:11:46.052Z,16.70
2022-09-09T07:14:16.977Z,16.80
2022-09-09T07:16:45.214Z,16.80
2022-09-09T07:19:13.670Z,16.70
2022-09-09T07:21:43.587Z,16.70
2022-09-09T07:24:11.795Z,16.70
2022-09-09T07:26:40.595Z,16.80
2022-09-09T07:29:09.735Z,16.90
2022-09-09T07:31:39.881Z,16.90
2022-09-09T07:34:08.142Z,17.00
2022-09-09T07:36:40.227Z,17.10
2022-09-09T07:39:14.193Z,17.00
2022-09-09T07:41:49.359Z,16.80
2022-09-09T07:44:37.670Z,16.70
2022-09-09T07:47:05.387Z,16.80
2022-09-09T07:49:33.494Z,16.70
2022-09-09T07:52:00.653Z,16.60
2022-09-09T07:54:27.799Z,16.60
2022-09-09T07:56:54.939Z,16.60
2022-09-09T07:59:22.121Z,16.70
2022-09-09T08:01:56.150Z,16.70
2022-09-09T08:04:27.229Z,16.80
2022-09-09T08:06:58.295Z,16.90
2022-09-09T08:09:28.212Z,16.90
2022-09-09T08:11:56.458Z,16.80
2022-09-09T08:14:24.361Z,16.70
2022-09-09T08:16:55.088Z,16.80
2022-09-09T08:19:22.321Z,16.80
2022-09-09T08:21:50.179Z,16.70
2022-09-09T08:24:17.322Z,16.60
2022-09-09T08:26:46.607Z,16.60
2022-09-09T08:29:14.985Z,16.50
2022-09-09T08:31:45.563Z,16.50
2022-09-09T08:34:13.435Z,16.50
2022-09-09T08:36:45.470Z,16.60
2022-09-09T08:39:17.501Z,16.70
2022-09-09T08:42:04.256Z,16.80
2022-09-09T08:44:40.231Z,16.90
2022-09-09T08:47:24.977Z,17.00
2022-09-09T08:50:37.308Z,17.10
2022-09-09T08:53:23.031Z,17.10
2022-09-09T08:55:50.006Z,17.10
2022-09-09T08:58:18.769Z,17.20
2022-09-09T09:00:52.817Z,17.20
2022-09-09T09:03:47.031Z,17.20
2022-09-09T09:06:34.549Z,17.20
2022-09-09T09:09:08.279Z,17.20
2022-09-09T09:11:40.372Z,17.20
2022-09-09T09:14:11.003Z,17.20
2022-09-09T09:16:58.086Z,17.20
2022-09-09T09:19:27.370Z,17.30
2022-09-09T09:22:12.984Z,17.30
2022-09-09T09:25:19.100Z,17.40
2022-09-09T09:28:33.899Z,17.60
2022-09-09T09:31:21.332Z,17.60
2022-09-09T09:33:51.644Z,17.70
2022-09-09T09:36:18.725Z,17.80
2022-09-09T09:41:48.783Z,18.00
2022-09-09T09:44:27.971Z,18.10
2022-09-09T09:47:13.354Z,18.20
2022-09-09T09:49:52.503Z,18.20
2022-09-09T09:52:25.874Z,18.30
2022-09-09T09:54:54.791Z,18.10
2022-09-09T09:57:30.219Z,18.10
2022-09-09T10:00:25.891Z,18.10
2022-09-09T10:02:55.889Z,18.20
2022-09-09T10:05:27.439Z,18.40
2022-09-09T10:08:12.491Z,18.40
2022-09-09T10:10:59.082Z,18.60
2022-09-09T10:14:00.146Z,18.70
2022-09-09T10:16:54.265Z,18.70
2022-09-09T10:19:36.592Z,18.80
2022-09-09T10:22:28.766Z,18.90
2022-09-09T10:24:55.685Z,18.90
2022-09-09T10:27:38.969Z,18.90
2022-09-09T10:30:23.035Z,19.00
2022-09-09T10:35:50.592Z,19.30
2022-09-09T10:38:29.434Z,19.40
2022-09-09T10:40:59.241Z,19.40
2022-09-09T10:43:44.371Z,19.60
2022-09-09T10:46:40.073Z,19.60
2022-09-09T10:49:36.829Z,19.70
2022-09-09T10:52:16.373Z,19.70
2022-09-09T10:55:03.764Z,19.90
2022-09-09T10:57:38.487Z,19.90
